Time;durP1;ratioP1;P1;durP2;ratioP2;P2;SDS_P1;SDS_P2;PMS_P1;PMS_P2;Temp;Humidity;BMP_temperature;BMP_pressure;BME280_temperature;BME280_humidity;BME280_pressure;Samples;Min_cycle;Max_cycle;Signal;HPM_P1;HPM_P2
2023/04/24 00:02:03;;;;;;;;;;;;;;;17.47;38.05;99651.03;5438262;32;34698;-60
2023/04/24 00:05:05;;;;;;;;;;;;;;;16.81;39.14;99658.81;5447910;32;35574;-78
2023/04/24 00:08:08;;;;;;;;;;;;;;;17.02;38.96;99651.00;5442389;32;34760;-78
2023/04/24 00:11:09;;;;;;;;;;;;;;;17.38;38.50;99643.78;5441845;32;34583;-60
2023/04/24 00:14:11;;;;;;;;;;;;;;;17.18;38.96;99637.38;5417078;32;44560;-61
2023/04/24 00:17:13;;;;;;;;;;;;;;;16.69;39.93;99642.00;5440715;32;34849;-61
2023/04/24 00:20:15;;;;;;;;;;;;;;;16.82;39.71;99643.75;5451500;32;35470;-79
2023/04/24 00:23:17;;;;;;;;;;;;;;;17.69;38.06;99648.34;5440731;32;35156;-80
2023/04/24 00:26:19;;;;;;;;;;;;;;;18.13;36.45;99646.59;5450991;32;34351;-61
2023/04/24 00:29:21;;;;;;;;;;;;;;;17.83;36.85;99652.56;5435312;32;35101;-61
2023/04/24 00:32:22;;;;;;;;;;;;;;;18.05;36.11;99652.53;5429933;32;36778;-70
2023/04/24 00:35:24;;;;;;;;;;;;;;;18.60;34.81;99637.28;5451594;32;34532;-62
2023/04/24 00:38:26;;;;;;;;;;;;;;;17.65;36.52;99648.72;5441310;32;34968;-60
2023/04/24 00:41:28;;;;;;;;;;;;;;;18.53;35.03;99637.94;5451929;32;34333;-61
2023/04/24 00:44:30;;;;;;;;;;;;;;;18.69;34.60;99634.87;5426903;32;34998;-79
2023/04/24 00:47:35;;;;;;;;;;;;;;;18.11;35.72;99628.09;5449001;32;33854;-79
2023/04/24 00:50:38;;;;;;;;;;;;;;;18.43;35.22;99626.41;5427296;32;35112;-80
2023/04/24 00:53:40;;;;;;;;;;;;;;;17.87;36.36;99622.13;5439629;32;35071;-62
2023/04/24 00:56:42;;;;;;;;;;;;;;;18.65;34.91;99634.25;5434337;32;44649;-79
2023/04/24 00:59:44;;;;;;;;;;;;;;;18.06;35.92;99632.09;5420713;32;36808;-76
2023/04/24 01:02:46;;;;;;;;;;;;;;;17.03;38.17;99627.00;5447181;32;34808;-80
2023/04/24 01:05:48;;;;;;;;;;;;;;;17.37;37.50;99624.34;5421754;32;35132;-61
2023/04/24 01:08:50;;;;;;;;;;;;;;;17.28;37.86;99638.34;5434200;32;35104;-61
2023/04/24 01:11:52;;;;;;;;;;;;;;;16.85;38.66;99635.53;5431507;32;34338;-61
2023/04/24 01:14:55;;;;;;;;;;;;;;;17.79;36.83;99625.41;5441109;32;35519;-79
2023/04/24 01:17:57;;;;;;;;;;;;;;;18.13;36.08;99628.81;5450292;32;35092;-62
2023/04/24 01:20:59;;;;;;;;;;;;;;;18.17;35.90;99618.78;5427364;32;35364;-61
2023/04/24 01:24:01;;;;;;;;;;;;;;;17.91;36.58;99628.91;5438954;32;35450;-61
2023/04/24 01:27:03;;;;;;;;;;;;;;;18.26;35.88;99612.69;5441435;32;34690;-78
2023/04/24 01:30:06;;;;;;;;;;;;;;;17.92;36.61;99619.09;5434098;32;35522;-78
2023/04/24 01:33:08;;;;;;;;;;;;;;;17.95;36.53;99605.53;5439962;32;38614;-78
2023/04/24 01:36:13;;;;;;;;;;;;;;;18.09;36.37;99614.06;5443360;32;34926;-79
2023/04/24 01:39:16;;;;;;;;;;;;;;;17.03;38.50;99611.06;5436170;32;45232;-61
2023/04/24 01:42:18;;;;;;;;;;;;;;;17.51;37.68;99617.91;5439923;32;35072;-62
2023/04/24 01:45:20;;;;;;;;;;;;;;;18.05;36.73;99609.16;5452053;32;33990;-79
2023/04/24 01:48:22;;;;;;;;;;;;;;;17.00;38.95;99619.28;5440287;32;35404;-81
2023/04/24 01:51:24;;;;;;;;;;;;;;;17.76;37.44;99600.88;5442150;32;35524;-61
2023/04/24 01:54:25;;;;;;;;;;;;;;;17.76;37.54;99595.56;5446761;32;35007;-70
2023/04/24 01:57:28;;;;;;;;;;;;;;;17.76;38.45;99588.44;5440026;32;35277;-61
2023/04/24 02:00:30;;;;;;;;;;;;;;;17.24;40.79;99579.31;5452718;32;35066;-68
2023/04/24 02:03:31;;;;;;;;;;;;;;;16.81;42.76;99562.41;5441512;32;35509;-60
2023/04/24 02:06:34;;;;;;;;;;;;;;;16.86;43.20;99558.44;5449331;32;34787;-61
2023/04/24 02:09:36;;;;;;;;;;;;;;;16.43;46.62;99568.84;5440169;32;35260;-62
2023/04/24 02:12:37;;;;;;;;;;;;;;;17.08;45.37;99556.78;5443736;32;34702;-60
2023/04/24 02:15:39;;;;;;;;;;;;;;;16.09;48.27;99554.62;5448132;32;35187;-60
2023/04/24 02:18:41;;;;;;;;;;;;;;;16.69;47.00;99543.81;5443430;32;44832;-80
2023/04/24 02:21:43;;;;;;;;;;;;;;;16.61;46.67;99542.69;5446800;32;34842;-79
2023/04/24 02:24:45;;;;;;;;;;;;;;;15.50;52.64;99547.47;5436921;32;34260;-79
2023/04/24 02:27:47;;;;;;;;;;;;;;;16.61;50.02;99542.69;5449644;32;34156;-61
2023/04/24 02:30:50;;;;;;;;;;;;;;;15.24;53.85;99540.56;5422865;32;35549;-79
2023/04/24 02:33:52;;;;;;;;;;;;;;;15.97;52.71;99546.66;5410541;32;35085;-60
2023/04/24 02:36:54;;;;;;;;;;;;;;;15.02;57.57;99550.03;5427762;32;35933;-79
2023/04/24 02:39:56;;;;;;;;;;;;;;;15.51;51.14;99537.72;5442391;32;35026;-79
2023/04/24 02:42:58;;;;;;;;;;;;;;;16.52;47.25;99539.81;5449627;32;35535;-80
2023/04/24 02:46:00;;;;;;;;;;;;;;;15.96;49.08;99525.56;5427436;32;35409;-79
2023/04/24 02:49:02;;;;;;;;;;;;;;;15.86;48.46;99532.50;5447912;32;35016;-78
2023/04/24 02:52:04;;;;;;;;;;;;;;;15.54;49.82;99533.06;5437228;32;34801;-60
2023/04/24 02:55:07;;;;;;;;;;;;;;;15.40;52.22;99535.87;5443928;32;35162;-60
2023/04/24 02:58:10;;;;;;;;;;;;;;;15.25;53.38;99531.66;5448063;32;34714;-78
2023/04/24 03:01:12;;;;;;;;;;;;;;;15.36;51.99;99529.94;5441562;32;46257;-60
2023/04/24 03:04:15;;;;;;;;;;;;;;;16.43;49.22;99523.78;5450102;32;37031;-78
2023/04/24 03:07:20;;;;;;;;;;;;;;;15.79;51.14;99523.34;5421061;32;35171;-60
2023/04/24 03:10:22;;;;;;;;;;;;;;;15.51;51.62;99524.47;5451783;32;34377;-79
2023/04/24 03:13:24;;;;;;;;;;;;;;;15.17;53.99;99517.16;5423683;32;34875;-79
2023/04/24 03:16:26;;;;;;;;;;;;;;;15.34;55.77;99515.97;5429208;32;35863;-61
2023/04/24 03:19:28;;;;;;;;;;;;;;;15.04;58.37;99519.00;5450024;32;35751;-69
2023/04/24 03:22:32;;;;;;;;;;;;;;;15.92;55.83;99517.00;5432308;32;34858;-70
2023/04/24 03:25:34;;;;;;;;;;;;;;;15.34;56.91;99525.72;5454408;32;34631;-60
2023/04/24 03:28:36;;;;;;;;;;;;;;;15.15;57.23;99516.44;5439009;32;34891;-62
2023/04/24 03:31:38;;;;;;;;;;;;;;;15.25;56.83;99521.91;5427430;32;34831;-62
2023/04/24 03:34:40;;;;;;;;;;;;;;;15.39;55.45;99516.50;5441665;32;34253;-60
2023/04/24 03:37:42;;;;;;;;;;;;;;;15.15;57.28;99528.84;5440644;32;47232;-75
2023/04/24 03:40:43;;;;;;;;;;;;;;;15.13;57.83;99531.59;5436836;32;36133;-80
2023/04/24 03:43:45;;;;;;;;;;;;;;;14.95;57.76;99516.19;5440714;32;34969;-81
2023/04/24 03:46:47;;;;;;;;;;;;;;;15.03;58.18;99527.91;5452896;32;35038;-78
2023/04/24 03:49:49;;;;;;;;;;;;;;;14.95;59.57;99521.47;5438504;32;35106;-81
2023/04/24 03:52:51;;;;;;;;;;;;;;;14.70;59.82;99509.97;5433195;32;34415;-79
2023/04/24 03:55:53;;;;;;;;;;;;;;;15.77;56.95;99512.81;5428246;32;34915;-61
2023/04/24 03:58:55;;;;;;;;;;;;;;;15.99;55.10;99525.34;5442715;32;34303;-79
2023/04/24 04:01:57;;;;;;;;;;;;;;;14.70;58.37;99523.19;5452718;32;35330;-80
2023/04/24 04:04:59;;;;;;;;;;;;;;;14.85;58.88;99518.63;5442923;32;34261;-70
2023/04/24 04:08:01;;;;;;;;;;;;;;;14.52;60.74;99519.19;5432634;32;35065;-61
2023/04/24 04:11:03;;;;;;;;;;;;;;;14.47;62.30;99523.94;5440996;32;35061;-79
2023/04/24 04:14:06;;;;;;;;;;;;;;;14.79;61.44;99514.59;5449988;32;35471;-81
2023/04/24 04:17:08;;;;;;;;;;;;;;;14.61;62.43;99514.06;5443725;32;35049;-80
2023/04/24 04:20:10;;;;;;;;;;;;;;;14.89;61.53;99520.94;5410637;32;45415;-62
2023/04/24 04:23:12;;;;;;;;;;;;;;;14.42;61.88;99502.22;5450314;32;34263;-61
2023/04/24 04:26:14;;;;;;;;;;;;;;;15.01;60.64;99507.81;5440721;32;34159;-61
2023/04/24 04:29:17;;;;;;;;;;;;;;;15.47;58.30;99518.56;5420827;32;34030;-60
2023/04/24 04:32:19;;;;;;;;;;;;;;;15.58;56.84;99534.50;5425843;32;34615;-80
2023/04/24 04:35:21;;;;;;;;;;;;;;;15.76;56.79;99527.03;5451324;32;34817;-71
2023/04/24 04:38:24;;;;;;;;;;;;;;;15.27;58.11;99525.31;5443065;32;34698;-61
2023/04/24 04:41:26;;;;;;;;;;;;;;;15.14;59.58;99519.22;5442994;32;34887;-62
2023/04/24 04:44:28;;;;;;;;;;;;;;;15.22;58.34;99513.37;5452819;32;34167;-79
2023/04/24 04:47:32;;;;;;;;;;;;;;;16.40;52.93;99516.03;5439946;32;35352;-70
2023/04/24 04:50:34;;;;;;;;;;;;;;;15.68;55.12;99503.78;5447926;32;34817;-79
2023/04/24 04:53:37;;;;;;;;;;;;;;;16.06;54.29;99509.81;5406663;32;35203;-79
2023/04/24 04:56:39;;;;;;;;;;;;;;;17.08;50.38;99501.88;5449240;32;34754;-61
2023/04/24 04:59:41;;;;;;;;;;;;;;;17.18;49.82;99496.66;5444524;32;46056;-79
2023/04/24 05:02:43;;;;;;;;;;;;;;;16.56;51.25;99498.00;5421071;32;35131;-80
2023/04/24 05:05:46;;;;;;;;;;;;;;;17.09;50.24;99486.78;5450602;32;35478;-80
2023/04/24 05:08:48;;;;;;;;;;;;;;;16.16;53.01;99493.06;5438764;32;35146;-80
2023/04/24 05:11:50;;;;;;;;;;;;;;;16.36;52.44;99504.84;5438021;32;34366;-80
2023/04/24 05:14:52;;;;;;;;;;;;;;;15.88;53.72;99504.94;5431681;32;35090;-80
2023/04/24 05:17:54;;;;;;;;;;;;;;;15.58;55.22;99497.41;5445783;32;35372;-61
2023/04/24 05:20:58;;;;;;;;;;;;;;;16.68;51.90;99494.38;5440582;32;35178;-80
2023/04/24 05:24:00;;;;;;;;;;;;;;;16.50;52.35;99480.75;5425484;32;34781;-79
2023/04/24 05:27:02;;;;;;;;;;;;;;;16.12;53.07;99496.09;5446628;32;34839;-61
2023/04/24 05:30:04;;;;;;;;;;;;;;;16.94;50.76;99473.78;5422519;32;35362;-61
2023/04/24 05:33:06;;;;;;;;;;;;;;;17.41;49.46;99492.97;5426650;32;34361;-79
2023/04/24 05:36:08;;;;;;;;;;;;;;;17.50;48.50;99494.03;5433879;32;34818;-62
2023/04/24 05:39:10;;;;;;;;;;;;;;;16.53;52.39;99495.56;5442558;32;43228;-62
2023/04/24 05:42:12;;;;;;;;;;;;;;;17.18;49.96;99494.84;5429808;32;34712;-74
2023/04/24 05:45:16;;;;;;;;;;;;;;;17.29;49.87;99505.44;5423766;32;34125;-63
2023/04/24 05:48:18;;;;;;;;;;;;;;;16.61;51.53;99517.03;5441042;32;36930;-63
2023/04/24 05:51:20;;;;;;;;;;;;;;;16.67;52.11;99516.53;5433910;32;34858;-66
2023/04/24 05:54:22;;;;;;;;;;;;;;;17.45;49.66;99501.53;5445887;32;34344;-76
2023/04/24 05:57:24;;;;;;;;;;;;;;;17.01;49.67;99508.63;5437000;32;34480;-79
2023/04/24 06:00:26;;;;;;;;;;;;;;;16.97;51.20;99505.37;5437085;32;35797;-78
2023/04/24 06:03:28;;;;;;;;;;;;;;;18.00;47.42;99503.16;5430746;32;34792;-68
2023/04/24 06:06:32;;;;;;;;;;;;;;;17.83;47.79;99485.97;5428543;32;34371;-61
2023/04/24 06:09:34;;;;;;;;;;;;;;;18.00;47.42;99492.53;5441238;32;35021;-70
2023/04/24 06:12:36;;;;;;;;;;;;;;;18.71;45.83;99497.19;5425084;32;34303;-66
2023/04/24 06:15:38;;;;;;;;;;;;;;;17.92;48.40;99492.34;5418366;32;34367;-70
2023/04/24 06:18:40;;;;;;;;;;;;;;;18.68;46.11;99511.63;5389809;32;35671;-69
2023/04/24 06:21:42;;;;;;;;;;;;;;;18.72;46.17;99514.84;5433529;32;34146;-68
2023/04/24 06:24:44;;;;;;;;;;;;;;;18.92;46.08;99514.78;5437575;32;34186;-60
2023/04/24 06:27:46;;;;;;;;;;;;;;;20.39;41.83;99511.31;5418023;32;34431;-79
2023/04/24 06:30:48;;;;;;;;;;;;;;;19.27;44.19;99508.19;5418769;32;34149;-62
2023/04/24 06:33:50;;;;;;;;;;;;;;;18.25;46.84;99514.41;5433484;32;34513;-76
2023/04/24 06:36:52;;;;;;;;;;;;;;;18.95;45.37;99511.03;5441051;32;35517;-61
2023/04/24 06:39:54;;;;;;;;;;;;;;;17.73;48.96;99508.97;5422526;32;34180;-62
2023/04/24 06:42:59;;;;;;;;;;;;;;;17.40;50.94;99511.72;5432447;32;34860;-69
2023/04/24 06:46:03;;;;;;;;;;;;;;;16.98;51.63;99516.81;5440957;32;36002;-64
2023/04/24 06:49:05;;;;;;;;;;;;;;;17.68;50.31;99503.16;5433524;32;34121;-64
2023/04/24 06:52:07;;;;;;;;;;;;;;;17.54;50.39;99514.06;5443228;32;35849;-65
2023/04/24 06:55:11;;;;;;;;;;;;;;;17.41;52.28;99508.09;5436535;32;34216;-60
2023/04/24 06:58:13;;;;;;;;;;;;;;;17.86;50.33;99504.31;5423688;32;44728;-71
2023/04/24 07:01:14;;;;;;;;;;;;;;;17.92;49.95;99507.44;5437386;32;36624;-62
2023/04/24 07:04:17;;;;;;;;;;;;;;;17.92;49.97;99504.78;5438015;32;33533;-62
2023/04/24 07:07:19;;;;;;;;;;;;;;;17.71;50.76;99496.72;5425836;32;34127;-64
2023/04/24 07:10:21;;;;;;;;;;;;;;;17.87;50.52;99506.00;5422940;32;34256;-63
2023/04/24 07:13:24;;;;;;;;;;;;;;;17.85;50.54;99512.44;5427735;32;35632;-77
2023/04/24 07:16:26;;;;;;;;;;;;;;;18.26;49.58;99503.63;5433668;32;34574;-62
2023/04/24 07:19:29;;;;;;;;;;;;;;;17.75;51.27;99501.72;5441990;32;34279;-77
2023/04/24 07:22:34;;;;;;;;;;;;;;;18.44;49.34;99505.72;5413738;32;34376;-72
2023/04/24 07:25:36;;;;;;;;;;;;;;;17.10;53.02;99502.56;5430782;32;33124;-69
2023/04/24 07:28:38;;;;;;;;;;;;;;;18.35;49.78;99505.53;5438257;32;34317;-80
2023/04/24 07:31:41;;;;;;;;;;;;;;;17.21;52.55;99510.53;5407760;32;43803;-64
2023/04/24 07:34:43;;;;;;;;;;;;;;;16.88;53.76;99516.72;5432918;32;34380;-71
2023/04/24 07:37:45;;;;;;;;;;;;;;;17.09;53.09;99505.37;5414927;32;34056;-61
2023/04/24 07:40:48;;;;;;;;;;;;;;;18.37;49.48;99508.03;5425143;32;35587;-62
2023/04/24 07:43:50;;;;;;;;;;;;;;;17.65;52.07;99502.59;5417712;32;37647;-67
2023/04/24 07:46:52;;;;;;;;;;;;;;;17.97;51.40;99494.59;5436501;32;36074;-76
2023/04/24 07:49:54;;;;;;;;;;;;;;;18.70;49.07;99493.69;5441536;32;34225;-73
2023/04/24 07:52:56;;;;;;;;;;;;;;;17.94;50.98;99492.22;5420507;32;34284;-73
2023/04/24 07:55:58;;;;;;;;;;;;;;;18.58;50.12;99482.25;5442307;32;34135;-65
2023/04/24 07:59:01;;;;;;;;;;;;;;;19.32;47.66;99492.63;5424620;32;36007;-67
2023/04/24 08:02:03;;;;;;;;;;;;;;;19.46;47.60;99499.38;5443408;32;33771;-62
2023/04/24 08:05:05;;;;;;;;;;;;;;;19.12;48.45;99493.53;5445739;32;36258;-60
2023/04/24 08:08:08;;;;;;;;;;;;;;;19.65;47.63;99490.59;5433572;32;35899;-58
2023/04/24 08:11:09;;;;;;;;;;;;;;;18.11;52.16;99502.28;5427727;32;35363;-60
2023/04/24 08:14:13;;;;;;;;;;;;;;;19.10;49.62;99495.50;5438024;32;44563;-63
2023/04/24 08:17:16;;;;;;;;;;;;;;;19.32;49.69;99489.09;5432378;32;36018;-65
2023/04/24 08:20:18;;;;;;;;;;;;;;;19.77;48.57;99486.78;5430790;32;37262;-83
2023/04/24 08:23:20;;;;;;;;;;;;;;;19.98;47.42;99487.50;5436835;32;34922;-62
2023/04/24 08:26:23;;;;;;;;;;;;;;;18.75;51.18;99485.31;5436544;32;35517;-61
2023/04/24 08:29:26;;;;;;;;;;;;;;;18.36;51.51;99472.63;5430763;32;35529;-60
2023/04/24 08:32:28;;;;;;;;;;;;;;;19.04;50.12;99491.56;5429396;32;34365;-76
2023/04/24 08:35:31;;;;;;;;;;;;;;;19.63;47.96;99493.38;5416232;32;34064;-74
2023/04/24 08:38:33;;;;;;;;;;;;;;;19.97;46.83;99493.81;5441050;32;34193;-70
2023/04/24 08:41:35;;;;;;;;;;;;;;;20.86;44.46;99495.31;5425339;32;34382;-62
2023/04/24 08:44:37;;;;;;;;;;;;;;;20.24;45.97;99487.75;5430937;32;34317;-62
2023/04/24 08:47:40;;;;;;;;;;;;;;;20.96;44.17;99482.75;5434123;32;35887;-61
2023/04/24 08:50:44;;;;;;;;;;;;;;;20.99;43.80;99488.63;5415683;32;46092;-67
2023/04/24 08:53:49;;;;;;;;;;;;;;;20.46;45.19;99486.59;5442142;32;35493;-71
2023/04/24 08:56:51;;;;;;;;;;;;;;;20.60;44.72;99485.28;5421582;32;34175;-65
2023/04/24 08:59:53;;;;;;;;;;;;;;;21.12;43.59;99480.25;5430552;32;34215;-69
2023/04/24 09:02:55;;;;;;;;;;;;;;;21.12;43.36;99482.09;5431527;32;34487;-64
2023/04/24 09:05:58;;;;;;;;;;;;;;;22.38;40.68;99474.81;5423377;32;36002;-64
2023/04/24 09:09:00;;;;;;;;;;;;;;;22.42;39.54;99461.97;5417764;32;34430;-62
2023/04/24 09:12:03;;;;;;;;;;;;;;;22.01;40.44;99464.28;5411944;32;35495;-67
2023/04/24 09:15:06;;;;;;;;;;;;;;;21.61;41.45;99465.63;5416791;32;34127;-75
2023/04/24 09:18:08;;;;;;;;;;;;;;;22.45;39.19;99458.94;5425951;32;34131;-68
2023/04/24 09:21:10;;;;;;;;;;;;;;;23.86;35.65;99460.09;5419088;32;35559;-69
2023/04/24 09:24:17;;;;;;;;;;;;;;;23.47;36.41;99458.88;5416287;32;44770;-72
2023/04/24 09:27:19;;;;;;;;;;;;;;;22.61;37.16;99455.53;5416905;32;36592;-66
2023/04/24 09:30:22;;;;;;;;;;;;;;;22.51;38.24;99442.25;5429284;32;35536;-68
2023/04/24 09:33:26;;;;;;;;;;;;;;;22.94;37.24;99452.03;5432906;32;34053;-72
2023/04/24 09:36:31;;;;;;;;;;;;;;;24.41;34.93;99444.16;5438205;32;34437;-87
2023/04/24 09:39:34;;;;;;;;;;;;;;;25.62;32.47;99424.91;5438090;32;34488;-71
2023/04/24 09:42:36;;;;;;;;;;;;;;;24.58;34.49;99435.00;5429388;32;34461;-67
2023/04/24 09:45:39;;;;;;;;;;;;;;;26.27;30.93;99424.34;5431719;32;34163;-67
2023/04/24 09:48:41;;;;;;;;;;;;;;;25.73;31.94;99424.53;5408386;32;44818;-61
2023/04/24 09:51:43;;;;;;;;;;;;;;;25.53;32.73;99420.63;5448409;32;34722;-62
2023/04/24 09:54:46;;;;;;;;;;;;;;;26.43;30.82;99429.59;5440443;32;34427;-67
2023/04/24 09:57:52;;;;;;;;;;;;;;;25.88;31.08;99411.94;5425278;32;34880;-69
2023/04/24 10:00:56;;;;;;;;;;;;;;;25.06;32.43;99413.53;5439200;32;34358;-64
2023/04/24 10:03:58;;;;;;;;;;;;;;;23.94;34.84;99420.69;5423751;32;34741;-62
2023/04/24 10:07:01;;;;;;;;;;;;;;;25.18;32.17;99416.63;5437453;32;34344;-72
2023/04/24 10:10:03;;;;;;;;;;;;;;;24.58;32.90;99410.84;5421249;32;36353;-69
2023/04/24 10:13:05;;;;;;;;;;;;;;;24.08;33.87;99423.69;5420624;32;34734;-71
2023/04/24 10:16:07;;;;;;;;;;;;;;;22.12;36.78;99428.47;5429832;32;34368;-70
2023/04/24 10:19:10;;;;;;;;;;;;;;;21.86;37.98;99423.91;5414631;32;34334;-63
2023/04/24 10:22:12;;;;;;;;;;;;;;;22.54;37.17;99423.19;5428412;32;44800;-63
2023/04/24 10:25:14;;;;;;;;;;;;;;;22.88;36.98;99419.69;5408760;32;34998;-77
2023/04/24 10:28:16;;;;;;;;;;;;;;;22.00;38.26;99430.50;5433205;32;34131;-68
2023/04/24 10:31:18;;;;;;;;;;;;;;;21.63;39.18;99415.50;5402420;32;34164;-65
2023/04/24 10:34:20;;;;;;;;;;;;;;;21.57;40.10;99409.94;5445682;32;35086;-61
2023/04/24 10:37:22;;;;;;;;;;;;;;;22.47;37.09;99403.41;5441549;32;34451;-69
2023/04/24 10:40:28;;;;;;;;;;;;;;;22.98;35.71;99412.34;5436796;32;34412;-65
2023/04/24 10:43:30;;;;;;;;;;;;;;;21.99;37.87;99411.94;5415395;32;34255;-65
2023/04/24 10:46:32;;;;;;;;;;;;;;;21.60;39.77;99415.81;5433056;32;35479;-73
2023/04/24 10:49:34;;;;;;;;;;;;;;;21.85;39.58;99421.37;5436318;32;36116;-73
2023/04/24 10:52:45;;;;;;;;;;;;;;;22.71;37.22;99422.25;5434895;32;34416;-64
2023/04/24 10:55:50;;;;;;;;;;;;;;;21.52;39.45;99426.47;5443366;32;46662;-88
2023/04/24 10:58:54;;;;;;;;;;;;;;;21.96;38.04;99414.91;5443553;32;36005;-60
2023/04/24 11:01:56;;;;;;;;;;;;;;;21.72;39.01;99415.59;5445304;32;36076;-60
2023/04/24 11:04:58;;;;;;;;;;;;;;;21.49;40.35;99408.03;5438676;32;34354;-73
2023/04/24 11:08:13;;;;;;;;;;;;;;;20.81;42.32;99410.31;5421536;32;36678;-62
2023/04/24 11:11:16;;;;;;;;;;;;;;;20.77;42.86;99406.25;5445352;32;44590;-72
2023/04/24 11:14:18;;;;;;;;;;;;;;;20.69;42.36;99411.50;5433934;32;34328;-64
2023/04/24 11:17:33;;;;;;;;;;;;;;;22.16;39.84;99400.41;5447080;32;35013;-68
2023/04/24 11:20:35;;;;;;;;;;;;;;;22.02;39.62;99379.53;5424054;32;37256;-61
2023/04/24 11:23:37;;;;;;;;;;;;;;;22.96;38.16;99390.22;5439828;32;34282;-76
2023/04/24 11:26:40;;;;;;;;;;;;;;;23.63;36.47;99388.34;5440037;32;34631;-60
2023/04/24 11:29:45;;;;;;;;;;;;;;;22.09;39.29;99386.81;5427573;32;44850;-78
2023/04/24 11:32:49;;;;;;;;;;;;;;;21.65;40.65;99391.31;5433765;32;35800;-62
2023/04/24 11:35:51;;;;;;;;;;;;;;;21.67;40.58;99388.47;5438239;32;35634;-79
2023/04/24 11:38:56;;;;;;;;;;;;;;;22.79;38.46;99375.06;5445468;32;34291;-63
2023/04/24 11:42:02;;;;;;;;;;;;;;;23.21;37.71;99373.19;5442343;32;34194;-60
2023/04/24 11:45:08;;;;;;;;;;;;;;;22.17;39.55;99376.16;5439704;32;33079;-83
2023/04/24 11:48:10;;;;;;;;;;;;;;;21.91;40.51;99377.97;5437214;32;34763;-60
2023/04/24 11:51:12;;;;;;;;;;;;;;;23.32;38.13;99371.22;5428496;32;46430;-64
2023/04/24 11:54:14;;;;;;;;;;;;;;;24.63;35.39;99370.03;5436803;32;35893;-76
2023/04/24 11:57:21;;;;;;;;;;;;;;;24.74;35.01;99361.59;5427181;32;35472;-84
2023/04/24 12:00:28;;;;;;;;;;;;;;;24.62;34.91;99352.25;5433687;32;34208;-80
2023/04/24 12:03:32;;;;;;;;;;;;;;;23.82;36.73;99346.06;5443312;32;34372;-60
2023/04/24 12:06:36;;;;;;;;;;;;;;;22.78;38.67;99349.28;5445020;32;36734;-81
2023/04/24 12:09:42;;;;;;;;;;;;;;;23.61;37.41;99343.88;5443263;32;36689;-60
2023/04/24 12:12:46;;;;;;;;;;;;;;;23.18;38.16;99332.47;5433365;32;43856;-59
2023/04/24 12:15:48;;;;;;;;;;;;;;;22.40;39.88;99338.94;5438177;32;35587;-60
2023/04/24 12:18:50;;;;;;;;;;;;;;;22.59;40.18;99343.19;5425933;32;37360;-63
2023/04/24 12:21:59;;;;;;;;;;;;;;;23.30;38.72;99333.81;5447721;32;35512;-59
2023/04/24 12:25:02;;;;;;;;;;;;;;;23.80;37.32;99323.94;5431236;32;34374;-62
2023/04/24 12:28:04;;;;;;;;;;;;;;;23.13;38.43;99333.00;5441557;32;34677;-61
2023/04/24 12:31:07;;;;;;;;;;;;;;;22.92;39.15;99317.38;5428422;32;36092;-61
2023/04/24 12:34:20;;;;;;;;;;;;;;;21.86;40.77;99332.94;5436894;32;34072;-70
2023/04/24 12:37:25;;;;;;;;;;;;;;;20.39;44.83;99330.69;5435541;32;35670;-61
2023/04/24 12:40:28;;;;;;;;;;;;;;;20.61;44.46;99323.28;5439892;32;34430;-71
2023/04/24 12:43:30;;;;;;;;;;;;;;;20.30;45.09;99320.91;5443902;32;34117;-76
2023/04/24 12:46:33;;;;;;;;;;;;;;;21.23;43.33;99311.72;5428829;32;34174;-60
2023/04/24 12:49:35;;;;;;;;;;;;;;;21.06;43.67;99309.94;5439434;32;34254;-72
2023/04/24 12:52:37;;;;;;;;;;;;;;;21.28;44.14;99300.59;5446542;32;34903;-61
2023/04/24 12:55:40;;;;;;;;;;;;;;;21.25;44.34;99292.84;5439997;32;35746;-73
2023/04/24 12:58:42;;;;;;;;;;;;;;;21.33;44.41;99293.81;5442951;32;44572;-80
2023/04/24 13:01:44;;;;;;;;;;;;;;;21.69;43.94;99292.87;5439273;32;36091;-74
2023/04/24 13:04:46;;;;;;;;;;;;;;;21.34;45.00;99294.66;5440438;32;36216;-73
2023/04/24 13:07:48;;;;;;;;;;;;;;;20.79;46.07;99298.28;5445604;32;34538;-73
2023/04/24 13:10:51;;;;;;;;;;;;;;;19.70;49.46;99283.91;5415974;32;34218;-77
2023/04/24 13:13:54;;;;;;;;;;;;;;;20.56;47.43;99289.06;5444532;32;34282;-61
2023/04/24 13:16:59;;;;;;;;;;;;;;;19.96;48.77;99297.44;5432886;32;34503;-60
2023/04/24 13:20:01;;;;;;;;;;;;;;;19.63;50.72;99296.16;5441576;32;35970;-79
2023/04/24 13:23:05;;;;;;;;;;;;;;;19.71;50.65;99298.94;5448033;32;35806;-82
2023/04/24 13:26:07;;;;;;;;;;;;;;;19.49;51.05;99300.06;5425983;32;35899;-61
2023/04/24 13:29:10;;;;;;;;;;;;;;;20.08;50.31;99295.44;5443483;32;34293;-76
2023/04/24 13:32:12;;;;;;;;;;;;;;;19.75;51.19;99284.31;5413689;32;47040;-63
2023/04/24 13:35:14;;;;;;;;;;;;;;;18.60;54.76;99286.03;5447703;32;33641;-68
2023/04/24 13:38:16;;;;;;;;;;;;;;;19.36;52.33;99285.37;5422513;32;34504;-73
2023/04/24 13:41:18;;;;;;;;;;;;;;;19.10;52.89;99293.94;5438208;32;34162;-75
2023/04/24 13:44:21;;;;;;;;;;;;;;;18.81;54.36;99299.28;5440350;32;35381;-61
2023/04/24 13:47:23;;;;;;;;;;;;;;;18.15;56.67;99293.59;5438073;32;34873;-62
2023/04/24 13:50:25;;;;;;;;;;;;;;;17.92;59.62;99313.41;5445701;32;35844;-60
2023/04/24 13:53:27;;;;;;;;;;;;;;;16.63;64.89;99320.63;5433679;32;35510;-76
2023/04/24 13:56:29;;;;;;;;;;;;;;;16.67;66.83;99319.38;5443219;32;34523;-60
2023/04/24 13:59:31;;;;;;;;;;;;;;;17.10;66.36;99324.69;5433614;32;34887;-76
2023/04/24 14:02:33;;;;;;;;;;;;;;;16.26;70.62;99334.16;5444332;32;34366;-78
2023/04/24 14:05:35;;;;;;;;;;;;;;;15.84;71.97;99341.00;5432423;32;35569;-61
2023/04/24 14:08:40;;;;;;;;;;;;;;;16.08;72.80;99338.25;5435776;32;34566;-61
2023/04/24 14:11:42;;;;;;;;;;;;;;;16.00;74.10;99330.91;5395700;32;863691;-62
2023/04/24 14:14:43;;;;;;;;;;;;;;;16.15;72.68;99342.94;5437820;32;36934;-61
2023/04/24 14:17:45;;;;;;;;;;;;;;;15.94;76.90;99356.06;5441877;32;34038;-72
2023/04/24 14:20:47;;;;;;;;;;;;;;;16.66;72.46;99342.41;5425075;32;34359;-61
2023/04/24 14:23:50;;;;;;;;;;;;;;;15.84;77.12;99354.25;5437439;32;35014;-61
2023/04/24 14:26:52;;;;;;;;;;;;;;;16.36;78.24;99351.03;5436315;32;33012;-65
2023/04/24 14:29:54;;;;;;;;;;;;;;;16.24;75.26;99341.41;5412980;32;35584;-79
2023/04/24 14:32:56;;;;;;;;;;;;;;;16.33;74.39;99342.47;5440126;32;34500;-63
2023/04/24 14:35:58;;;;;;;;;;;;;;;17.52;70.77;99335.38;5443014;32;34455;-59
2023/04/24 14:39:03;;;;;;;;;;;;;;;17.96;66.15;99336.06;5419913;32;35805;-85
2023/04/24 14:42:05;;;;;;;;;;;;;;;18.30;62.65;99328.69;5433077;32;33764;-61
2023/04/24 14:45:08;;;;;;;;;;;;;;;17.52;66.64;99338.87;5426962;32;34704;-77
2023/04/24 14:48:11;;;;;;;;;;;;;;;17.87;65.54;99335.06;5431369;32;34829;-62
2023/04/24 14:51:12;;;;;;;;;;;;;;;18.38;64.38;99329.69;5419670;32;44433;-75
2023/04/24 14:54:17;;;;;;;;;;;;;;;18.60;62.03;99331.25;5448486;32;34326;-76
2023/04/24 14:57:19;;;;;;;;;;;;;;;18.39;63.33;99331.34;5438078;32;35074;-63
2023/04/24 15:00:23;;;;;;;;;;;;;;;17.87;65.83;99335.88;5441708;32;34187;-80
2023/04/24 15:03:26;;;;;;;;;;;;;;;17.95;67.76;99339.72;5428575;32;34290;-62
2023/04/24 15:06:30;;;;;;;;;;;;;;;18.13;65.32;99340.78;5441497;32;35546;-76
2023/04/24 15:09:32;;;;;;;;;;;;;;;17.28;68.44;99336.47;5440409;32;35182;-59
2023/04/24 15:12:34;;;;;;;;;;;;;;;18.54;65.67;99325.66;5441988;32;34803;-61
2023/04/24 15:15:36;;;;;;;;;;;;;;;17.78;68.21;99333.19;5428621;32;34409;-62
2023/04/24 15:18:39;;;;;;;;;;;;;;;18.26;66.99;99325.44;5431035;32;33463;-75
2023/04/24 15:21:42;;;;;;;;;;;;;;;18.79;65.45;99322.50;5436996;32;46629;-61
2023/04/24 15:24:44;;;;;;;;;;;;;;;18.04;64.60;99321.16;5439053;32;35740;-61
2023/04/24 15:27:46;;;;;;;;;;;;;;;18.43;64.94;99320.47;5421025;32;34572;-85
2023/04/24 15:30:48;;;;;;;;;;;;;;;17.56;66.81;99327.00;5421177;32;34706;-60
2023/04/24 15:33:50;;;;;;;;;;;;;;;18.18;66.12;99322.59;5436901;32;34390;-73
2023/04/24 15:36:52;;;;;;;;;;;;;;;19.02;60.59;99324.94;5442699;32;34790;-65
2023/04/24 15:39:56;;;;;;;;;;;;;;;18.61;62.56;99322.31;5439010;32;34094;-80
2023/04/24 15:42:59;;;;;;;;;;;;;;;18.45;62.98;99331.78;5440264;32;34353;-81
2023/04/24 15:46:01;;;;;;;;;;;;;;;18.58;60.29;99335.06;5440867;32;35321;-64
2023/04/24 15:49:03;;;;;;;;;;;;;;;18.78;59.06;99331.47;5443638;32;36995;-80
2023/04/24 15:52:05;;;;;;;;;;;;;;;18.08;61.15;99335.00;5447591;32;34779;-83